Time;durP1;ratioP1;P1;durP2;ratioP2;P2;SDS_P1;SDS_P2;PMS_P1;PMS_P2;Temp;Humidity;BMP_temperature;BMP_pressure;BME280_temperature;BME280_humidity;BME280_pressure;Samples;Min_cycle;Max_cycle;Signal;HPM_P1;HPM_P2
2021/03/22 00:01:05;;;;;;;33.55;18.32;;;;;;;1.63;63.85;98069.12;1812988;78;21129;-59
2021/03/22 00:03:39;;;;;;;32.98;19.87;;;;;;;1.68;63.94;98065.94;1870727;76;22117;-62
2021/03/22 00:06:07;;;;;;;34.08;20.92;;;;;;;1.64;63.94;98063.25;1827883;77;21253;-63
2021/03/22 00:08:36;;;;;;;38.00;21.12;;;;;;;1.66;63.97;98056.13;1827804;78;21130;-57
2021/03/22 00:11:05;;;;;;;32.38;18.70;;;;;;;1.69;63.96;98052.81;1827872;78;21126;-59
2021/03/22 00:13:33;;;;;;;28.65;18.17;;;;;;;1.70;63.94;98046.89;1827562;78;21154;-59
2021/03/22 00:16:08;;;;;;;30.90;18.40;;;;;;;1.70;63.89;98037.99;1827575;77;21138;-60
2021/03/22 00:18:38;;;;;;;31.55;18.35;;;;;;;1.69;63.91;98036.28;1827554;78;21149;-59
2021/03/22 00:21:10;;;;;;;31.20;18.57;;;;;;;1.67;63.97;98039.17;1827633;78;21249;-61
2021/03/22 00:23:38;;;;;;;35.17;17.27;;;;;;;1.61;64.10;98042.81;1827556;77;21281;-63
2021/03/22 00:26:08;;;;;;;30.77;17.15;;;;;;;1.55;64.35;98033.70;1827902;77;21659;-62
2021/03/22 00:28:39;;;;;;;32.23;18.25;;;;;;;1.50;64.46;98033.17;1827530;78;21079;-61
2021/03/22 00:31:13;;;;;;;30.05;17.10;;;;;;;1.44;64.72;98029.56;1827798;78;21107;-60
2021/03/22 00:33:42;;;;;;;29.55;17.77;;;;;;;1.42;64.87;98033.31;1827724;78;21173;-59
2021/03/22 00:36:11;;;;;;;31.52;17.85;;;;;;;1.41;65.00;98022.70;1827538;77;21138;-62
2021/03/22 00:38:38;;;;;;;30.20;17.42;;;;;;;1.38;65.06;98027.69;1827539;78;21170;-61
2021/03/22 00:41:06;;;;;;;30.60;18.00;;;;;;;1.34;65.22;98027.13;1827792;78;21300;-62
2021/03/22 00:43:36;;;;;;;30.12;17.85;;;;;;;1.33;65.28;98024.55;1827464;78;21134;-60
2021/03/22 00:46:05;;;;;;;28.47;17.35;;;;;;;1.32;65.39;98031.29;1827544;78;21233;-59
2021/03/22 00:48:36;;;;;;;34.10;18.30;;;;;;;1.31;65.54;98034.66;1827569;78;21164;-61
2021/03/22 00:51:06;;;;;;;30.43;18.42;;;;;;;1.27;65.67;98031.17;1827676;78;21142;-61
2021/03/22 00:53:36;;;;;;;31.87;18.62;;;;;;;1.26;65.82;98023.48;1807435;78;21549;-60
2021/03/22 00:56:04;;;;;;;31.33;18.20;;;;;;;1.25;65.93;98016.27;1827557;78;21232;-61
2021/03/22 00:58:32;;;;;;;30.68;18.07;;;;;;;1.26;65.95;98019.25;1827628;78;21284;-62
2021/03/22 01:01:01;;;;;;;31.23;17.48;;;;;;;1.27;66.00;98024.81;1827766;78;21145;-60
2021/03/22 01:03:32;;;;;;;32.15;17.65;;;;;;;1.27;66.06;98012.48;1816501;78;21305;-63
2021/03/22 01:06:05;;;;;;;33.50;18.07;;;;;;;1.26;66.11;98023.48;1813895;79;21285;-62
2021/03/22 01:08:36;;;;;;;31.33;18.95;;;;;;;1.28;66.19;98020.17;1813643;79;21095;-61
2021/03/22 01:11:10;;;;;;;31.82;18.62;;;;;;;1.28;66.24;98019.31;1813586;78;21143;-59
2021/03/22 01:13:43;;;;;;;32.80;17.80;;;;;;;1.29;66.30;98024.43;1813531;79;21107;-58
2021/03/22 01:16:14;;;;;;;33.58;19.23;;;;;;;1.30;66.37;98022.78;1813002;78;21621;-61
2021/03/22 01:18:48;;;;;;;32.40;17.00;;;;;;;1.34;66.41;98024.58;1812879;78;21289;-61
2021/03/22 01:21:33;;;;;;;33.00;19.60;;;;;;;1.39;66.42;98020.51;1812808;79;21107;-60
2021/03/22 01:24:03;;;;;;;30.52;18.25;;;;;;;1.43;66.36;98014.72;1813138;79;21277;-60
2021/03/22 01:26:35;;;;;;;30.02;17.90;;;;;;;1.48;66.29;98011.91;1812963;79;21156;-64
2021/03/22 01:29:16;;;;;;;34.73;19.77;;;;;;;1.52;66.26;98012.45;1812862;79;21131;-59
2021/03/22 01:31:46;;;;;;;32.20;19.23;;;;;;;1.52;66.20;98003.55;1813336;78;21277;-59
2021/03/22 01:34:15;;;;;;;32.53;18.15;;;;;;;1.54;66.25;98002.75;1813029;79;21139;-63
2021/03/22 01:36:43;;;;;;;36.23;20.08;;;;;;;1.56;66.24;98010.88;1812830;79;21151;-62
2021/03/22 01:39:15;;;;;;;30.72;18.15;;;;;;;1.56;66.26;98008.75;1813062;79;21281;-61
2021/03/22 01:42:14;;;;;;;32.15;18.87;;;;;;;1.53;66.35;98012.06;1813119;78;21130;-58
2021/03/22 01:44:47;;;;;;;31.12;18.05;;;;;;;1.50;66.47;98011.56;1812115;78;21135;-59
2021/03/22 01:47:22;;;;;;;37.35;19.57;;;;;;;1.51;66.53;98002.25;1811558;78;21273;-58
2021/03/22 01:50:10;;;;;;;31.23;17.65;;;;;;;1.54;66.56;97998.94;1813098;79;21162;-56
2021/03/22 01:52:43;;;;;;;29.82;17.82;;;;;;;1.54;66.56;97993.85;1826565;77;21156;-62
2021/03/22 01:55:13;;;;;;;28.98;16.90;;;;;;;1.57;66.54;97998.61;1813077;79;21305;-60
2021/03/22 01:57:45;;;;;;;32.23;18.80;;;;;;;1.57;66.56;98002.84;1813041;79;21166;-58
2021/03/22 02:00:28;;;;;;;;;;;;;;;1.55;66.65;97996.42;1815883;79;21542;-63
2021/03/22 02:03:14;;;;;;;33.70;20.37;;;;;;;1.54;66.73;98001.06;1812886;79;20409;-63
2021/03/22 02:05:47;;;;;;;31.70;17.82;;;;;;;1.54;66.79;98001.48;1812846;79;21127;-57
2021/03/22 02:08:23;;;;;;;33.20;19.20;;;;;;;1.55;66.82;98009.55;1813087;79;21135;-58
2021/03/22 02:10:51;;;;;;;32.33;19.17;;;;;;;1.59;66.81;98012.23;1813004;78;21293;-60
2021/03/22 02:13:24;;;;;;;31.97;20.23;;;;;;;1.60;66.81;98005.05;1813135;78;21114;-60
2021/03/22 02:16:01;;;;;;;35.65;19.30;;;;;;;1.63;66.80;98001.73;1813112;79;21297;-57
2021/03/22 02:19:09;;;;;;;31.35;18.92;;;;;;;1.67;66.75;97994.67;1813067;78;21562;-59
2021/03/22 02:22:15;;;;;;;33.00;19.40;;;;;;;1.67;66.71;98001.03;1812984;79;21162;-61
2021/03/22 02:25:22;;;;;;;32.53;18.32;;;;;;;1.63;66.72;97997.55;1812761;78;21108;-62
2021/03/22 02:28:14;;;;;;;36.85;19.87;;;;;;;1.65;66.74;97989.53;1812805;78;21163;-59
2021/03/22 02:30:59;;;;;;;33.15;18.85;;;;;;;1.67;66.72;97985.77;1771971;81;21118;-61
2021/03/22 02:33:53;;;;;;;32.95;19.50;;;;;;;1.68;66.76;97981.13;1812795;79;21221;-55
2021/03/22 02:36:44;;;;;;;30.88;17.95;;;;;;;1.66;66.77;97990.41;1813157;78;21135;-62
2021/03/22 02:39:12;;;;;;;31.02;18.52;;;;;;;1.65;66.81;97978.08;1812832;79;21281;-62
2021/03/22 02:41:48;;;;;;;34.88;20.92;;;;;;;1.65;66.88;97986.98;1801940;79;21305;-59
2021/03/22 02:44:25;;;;;;;32.20;18.55;;;;;;;1.67;66.87;97989.59;1813055;78;21131;-58
2021/03/22 02:47:00;;;;;;;34.90;19.02;;;;;;;1.65;66.89;97973.00;1812233;78;21108;-58
2021/03/22 02:49:31;;;;;;;32.38;18.95;;;;;;;1.67;66.94;97978.14;1811988;78;21709;-63
2021/03/22 02:52:10;;;;;;;31.17;17.27;;;;;;;1.63;66.91;97973.39;1813094;79;21127;-60
2021/03/22 02:54:51;;;;;;;32.03;18.73;;;;;;;1.63;67.00;97973.77;1812980;79;21530;-60
2021/03/22 02:57:57;;;;;;;33.42;20.12;;;;;;;1.62;66.99;97964.42;1812706;78;21139;-63
2021/03/22 03:00:33;;;;;;;31.05;18.73;;;;;;;1.62;66.94;97966.55;1813072;79;21119;-60
2021/03/22 03:03:06;;;;;;;30.72;18.35;;;;;;;1.62;66.95;97968.24;1812864;78;21169;-57
2021/03/22 03:05:35;;;;;;;33.83;18.80;;;;;;;1.63;66.94;97967.41;1812917;78;21123;-62
2021/03/22 03:08:10;;;;;;;34.40;19.60;;;;;;;1.63;66.97;97963.22;1812778;78;21198;-62
2021/03/22 03:10:39;;;;;;;33.63;19.32;;;;;;;1.64;66.88;97958.98;1812728;79;21343;-54
2021/03/22 03:13:06;;;;;;;27.32;17.15;;;;;;;1.63;66.91;97958.13;1812769;78;21151;-60
2021/03/22 03:15:37;;;;;;;31.15;18.90;;;;;;;1.61;66.92;97963.57;1813056;78;21605;-63
2021/03/22 03:18:05;;;;;;;29.82;17.90;;;;;;;1.63;66.93;97956.86;1813057;78;21142;-60
2021/03/22 03:20:34;;;;;;;29.42;18.20;;;;;;;1.66;66.88;97961.17;1813095;79;21131;-60
2021/03/22 03:23:03;;;;;;;31.73;18.02;;;;;;;1.67;66.82;97965.42;1813046;78;21123;-63
2021/03/22 03:25:31;;;;;;;31.23;17.52;;;;;;;1.67;66.86;97962.88;1812733;79;21168;-60
2021/03/22 03:27:59;;;;;;;30.20;18.35;;;;;;;1.70;66.76;97960.42;1812885;79;21558;-61
2021/03/22 03:30:32;;;;;;;31.33;17.05;;;;;;;1.71;66.70;97960.48;1812915;79;21103;-62
2021/03/22 03:33:01;;;;;;;33.13;18.48;;;;;;;1.70;66.74;97960.42;1812747;79;21123;-60
2021/03/22 03:35:34;;;;;;;29.23;17.00;;;;;;;1.72;66.73;97957.52;1812959;78;21132;-59
2021/03/22 03:38:04;;;;;;;32.13;18.75;;;;;;;1.74;66.73;97957.17;1812742;79;21155;-59
2021/03/22 03:40:40;;;;;;;32.13;19.15;;;;;;;1.75;66.61;97952.52;1813126;78;21323;-61
2021/03/22 03:43:10;;;;;;;30.72;19.07;;;;;;;1.73;66.62;97950.33;1812458;78;21131;-61
2021/03/22 03:45:41;;;;;;;31.37;18.60;;;;;;;1.76;66.60;97943.23;1813076;78;21143;-61
2021/03/22 03:48:15;;;;;;;32.33;18.17;;;;;;;1.72;66.57;97939.30;1812919;78;21148;-58
2021/03/22 03:50:43;;;;;;;39.15;19.25;;;;;;;1.72;66.54;97936.77;1813033;79;21642;-62
2021/03/22 03:53:12;;;;;;;29.75;18.50;;;;;;;1.71;66.54;97932.92;1812941;78;21160;-63
2021/03/22 03:55:42;;;;;;;30.43;18.57;;;;;;;1.72;66.52;97935.91;1812746;79;21285;-60
2021/03/22 03:58:09;;;;;;;33.33;20.12;;;;;;;1.72;66.48;97928.28;1812731;79;21135;-61
2021/03/22 04:00:42;;;;;;;31.95;17.85;;;;;;;1.72;66.42;97935.91;1812934;79;21276;-59
2021/03/22 04:03:25;;;;;;;34.03;18.50;;;;;;;1.72;66.37;97939.72;1816588;78;21127;-60
2021/03/22 04:06:14;;;;;;;32.90;18.27;;;;;;;1.72;66.33;97935.48;1827118;77;21157;-59
2021/03/22 04:08:52;;;;;;;31.95;18.50;;;;;;;1.76;66.27;97937.73;1827084;77;21134;-59
2021/03/22 04:11:31;;;;;;;28.65;16.77;;;;;;;1.78;66.21;97934.83;1827379;78;21154;-63
2021/03/22 04:14:00;;;;;;;32.28;18.12;;;;;;;1.80;66.11;97921.72;1827088;78;21119;-61
2021/03/22 04:16:30;;;;;;;32.53;18.80;;;;;;;1.83;66.04;97926.92;1827094;78;21178;-65
2021/03/22 04:18:59;;;;;;;32.30;18.20;;;;;;;1.84;65.93;97918.88;1827681;78;21704;-66
2021/03/22 04:21:30;;;;;;;30.68;18.65;;;;;;;1.88;65.92;97921.94;1827308;78;21280;-63
2021/03/22 04:24:01;;;;;;;27.37;16.35;;;;;;;1.91;65.81;97918.23;1827595;78;21277;-60
2021/03/22 04:26:29;;;;;;;29.32;17.27;;;;;;;1.92;65.72;97924.62;1827386;78;21103;-62
2021/03/22 04:28:57;;;;;;;32.17;18.30;;;;;;;1.95;65.65;97921.30;1827110;78;21134;-61
2021/03/22 04:31:27;;;;;;;40.60;20.08;;;;;;;1.98;65.56;97922.65;1827112;78;21131;-64
2021/03/22 04:33:56;;;;;;;30.77;18.75;;;;;;;2.00;65.52;97918.89;1827217;78;21142;-62
2021/03/22 04:36:29;;;;;;;31.25;16.50;;;;;;;2.03;65.39;97920.23;1827063;78;21131;-60
2021/03/22 04:38:58;;;;;;;33.02;17.87;;;;;;;2.04;65.28;97920.30;1827398;78;21130;-61
2021/03/22 04:41:26;;;;;;;34.78;18.95;;;;;;;2.05;65.29;97922.42;1827035;77;21149;-61
2021/03/22 04:43:55;;;;;;;29.25;17.95;;;;;;;2.05;65.28;97924.97;1827272;78;21139;-64
2021/03/22 04:46:23;;;;;;;32.90;17.77;;;;;;;2.05;65.32;97925.82;1827048;78;21095;-58
2021/03/22 04:48:53;;;;;;;30.15;17.67;;;;;;;2.09;65.30;97931.88;1826363;78;21316;-59
2021/03/22 04:51:23;;;;;;;31.15;18.10;;;;;;;2.12;65.14;97930.69;1827320;78;21232;-58
2021/03/22 04:53:50;;;;;;;29.72;17.82;;;;;;;2.12;65.15;97942.99;1827349;78;21150;-65
2021/03/22 04:56:22;;;;;;;29.25;18.05;;;;;;;2.12;65.22;97931.54;1827428;78;21284;-61
2021/03/22 04:58:50;;;;;;;31.27;18.45;;;;;;;2.14;65.26;97929.05;1827341;78;21256;-59
2021/03/22 05:01:18;;;;;;;31.00;16.60;;;;;;;2.15;65.37;97942.22;1811531;78;21259;-61
2021/03/22 05:03:47;;;;;;;35.05;18.65;;;;;;;2.15;65.47;97937.13;1808823;77;21282;-61
2021/03/22 05:06:15;;;;;;;31.35;17.60;;;;;;;2.16;65.54;97932.47;1782927;79;21091;-60
2021/03/22 05:08:46;;;;;;;27.85;17.67;;;;;;;2.19;65.55;97940.22;1807817;79;21539;-62
2021/03/22 05:11:17;;;;;;;32.88;18.27;;;;;;;2.18;65.59;97938.47;1806789;77;21123;-62
2021/03/22 05:13:45;;;;;;;39.38;19.62;;;;;;;2.19;65.52;97932.58;1806433;79;21286;-63
2021/03/22 05:16:14;;;;;;;36.23;19.30;;;;;;;2.19;65.50;97932.58;1806927;79;21126;-61
2021/03/22 05:18:43;;;;;;;28.23;17.62;;;;;;;2.24;65.38;97937.77;1793648;79;21286;-60
2021/03/22 05:21:11;;;;;;;39.25;18.12;;;;;;;2.26;65.36;97947.17;1789139;80;21148;-63
2021/03/22 05:23:41;;;;;;;31.77;18.17;;;;;;;2.32;65.23;97942.27;1789124;80;21105;-61
2021/03/22 05:26:10;;;;;;;31.17;16.80;;;;;;;2.36;65.06;97954.23;1789149;80;21140;-60
2021/03/22 05:28:41;;;;;;;30.97;17.32;;;;;;;2.38;65.16;97953.02;1789487;80;21152;-62
2021/03/22 05:31:10;;;;;;;33.10;19.02;;;;;;;2.42;65.02;97953.56;1789177;80;21261;-64
2021/03/22 05:33:38;;;;;;;34.50;18.75;;;;;;;2.45;64.92;97957.45;1789425;80;21282;-60
2021/03/22 05:36:07;;;;;;;30.00;18.50;;;;;;;2.53;64.76;97970.39;1789195;80;21278;-59
2021/03/22 05:38:36;;;;;;;32.90;17.32;;;;;;;2.61;64.73;97961.27;1789176;79;21160;-60
2021/03/22 05:41:09;;;;;;;37.50;18.90;;;;;;;2.70;64.53;97963.20;1793769;79;21318;-64
2021/03/22 05:43:48;;;;;;;33.02;19.10;;;;;;;2.79;64.37;97958.33;1753565;80;21384;-62
2021/03/22 05:46:48;;;;;;;33.55;19.40;;;;;;;2.91;64.19;97961.19;1768146;80;21155;-61
2021/03/22 05:49:25;;;;;;;38.98;20.23;;;;;;;3.06;63.81;97958.16;1789183;79;21160;-63
2021/03/22 05:52:26;;;;;;;36.08;18.52;;;;;;;3.30;63.38;97958.28;1788954;80;21558;-62
2021/03/22 05:55:23;;;;;;;34.53;18.17;;;;;;;3.52;62.79;97952.00;1789413;79;21128;-60
2021/03/22 05:58:31;;;;;;;32.90;18.85;;;;;;;3.73;62.26;97954.16;1789403;79;21132;-61
2021/03/22 06:01:32;;;;;;;30.37;17.55;;;;;;;3.92;61.70;97946.06;1798571;79;21283;-60
2021/03/22 06:04:15;;;;;;;39.25;18.80;;;;;;;4.20;61.12;97954.25;1786304;79;21217;-64
2021/03/22 06:06:45;;;;;;;33.83;17.75;;;;;;;4.38;60.45;97956.34;1771553;80;21142;-64
2021/03/22 06:09:45;;;;;;;31.93;18.82;;;;;;;4.52;60.13;97959.57;1781029;79;21151;-62
2021/03/22 06:12:43;;;;;;;30.15;17.23;;;;;;;4.73;59.74;97955.69;1781000;80;21260;-61
2021/03/22 06:15:19;;;;;;;36.45;18.30;;;;;;;4.92;59.25;97953.91;1758406;80;21386;-59
2021/03/22 06:18:32;;;;;;;30.08;17.45;;;;;;;5.12;58.71;97955.94;1780882;80;21131;-61
2021/03/22 06:21:13;;;;;;;27.07;17.27;;;;;;;5.17;58.25;97955.17;1781203;80;21146;-60
2021/03/22 06:23:45;;;;;;;34.73;17.37;;;;;;;5.23;58.14;97955.68;1781042;80;21170;-63
2021/03/22 06:26:41;;;;;;;30.95;17.57;;;;;;;5.33;58.16;97955.41;1781258;80;21154;-66
2021/03/22 06:29:34;;;;;;;24.70;15.68;;;;;;;5.44;58.01;97957.70;1781062;80;21586;-65
2021/03/22 06:32:07;;;;;;;23.85;14.98;;;;;;;5.47;57.91;97954.33;1787937;79;21141;-68
2021/03/22 06:34:49;;;;;;;25.88;16.32;;;;;;;5.43;58.16;97956.84;1795876;79;21313;-64
2021/03/22 06:37:31;;;;;;;22.98;14.85;;;;;;;5.41;58.50;97965.34;1798233;79;21292;-64
2021/03/22 06:40:28;;;;;;;24.40;15.48;;;;;;;5.47;58.55;97969.67;1796849;79;21109;-65
2021/03/22 06:43:14;;;;;;;24.60;15.13;;;;;;;5.46;58.69;97971.38;1797038;79;21088;-67
2021/03/22 06:45:53;;;;;;;25.20;15.13;;;;;;;5.53;59.02;97964.67;1796989;79;21144;-64
2021/03/22 06:48:30;;;;;;;23.90;15.38;;;;;;;5.50;59.42;97971.03;1810206;79;21170;-60
2021/03/22 06:51:06;;;;;;;27.25;15.70;;;;;;;5.46;59.86;97971.80;1789240;79;21168;-62
2021/03/22 06:53:55;;;;;;;24.07;14.98;;;;;;;5.41;60.40;97973.01;1780745;80;21144;-62
2021/03/22 06:56:39;;;;;;;25.57;16.30;;;;;;;5.19;60.86;97976.52;1780879;80;21133;-63
2021/03/22 06:59:17;;;;;;;23.38;15.18;;;;;;;4.74;62.10;97974.89;1810538;78;21116;-63
2021/03/22 07:01:49;;;;;;;25.40;15.57;;;;;;;4.81;62.81;97977.16;1792499;79;21129;-61
2021/03/22 07:04:32;;;;;;;23.30;15.10;;;;;;;4.82;63.43;97981.42;1794530;79;21291;-65
2021/03/22 07:07:16;;;;;;;;;;;;;;;5.00;63.92;97988.55;1817659;77;21307;-64
2021/03/22 07:09:56;;;;;;;22.82;14.47;;;;;;;5.14;63.85;97986.20;1809024;79;20430;-65
2021/03/22 07:12:40;;;;;;;20.92;13.72;;;;;;;5.17;63.84;97983.30;1799322;79;21315;-64
2021/03/22 07:15:32;;;;;;;23.45;14.68;;;;;;;5.06;64.43;97991.62;1786469;80;21257;-64
2021/03/22 07:18:15;;;;;;;23.55;14.25;;;;;;;4.71;65.60;97988.05;1791577;79;21243;-67
2021/03/22 07:21:02;;;;;;;25.40;15.03;;;;;;;4.64;67.18;97988.76;1800243;79;21642;-65
2021/03/22 07:23:45;;;;;;;24.05;14.58;;;;;;;4.68;67.85;97990.52;1803649;79;21532;-63
2021/03/22 07:26:36;;;;;;;21.93;14.07;;;;;;;4.80;69.39;97984.36;1801213;79;21272;-62
2021/03/22 07:29:31;;;;;;;22.45;14.40;;;;;;;5.16;70.35;97987.10;1795060;77;21194;-62
2021/03/22 07:32:21;;;;;;;24.52;15.78;;;;;;;5.64;68.76;97977.19;1801286;77;21138;-63
2021/03/22 07:35:18;;;;;;;25.45;13.80;;;;;;;5.90;67.18;97984.38;1792298;79;21129;-64
2021/03/22 07:38:04;;;;;;;22.07;15.05;;;;;;;6.02;65.38;97978.17;1771341;80;21310;-62
2021/03/22 07:40:52;;;;;;;21.65;14.83;;;;;;;5.88;66.21;97982.67;1727916;82;21243;-61
2021/03/22 07:43:40;;;;;;;26.27;16.10;;;;;;;5.75;66.02;97978.22;1767511;80;21702;-61
2021/03/22 07:46:22;;;;;;;24.32;15.75;;;;;;;5.33;66.66;97978.44;1780449;79;21220;-62
2021/03/22 07:49:12;;;;;;;22.30;14.50;;;;;;;4.90;67.93;97984.96;1754623;82;21137;-61
2021/03/22 07:52:10;;;;;;;23.47;15.98;;;;;;;4.66;68.50;97981.98;1763970;80;21150;-64
2021/03/22 07:55:11;;;;;;;21.85;14.33;;;;;;;4.49;69.18;97980.38;1763835;80;21267;-66
2021/03/22 07:57:47;;;;;;;25.43;16.25;;;;;;;4.38;70.10;97983.16;1677381;83;21143;-64
2021/03/22 08:00:43;;;;;;;20.48;15.08;;;;;;;4.32;71.10;97983.88;1768351;80;21130;-64
2021/03/22 08:03:31;;;;;;;23.35;15.08;;;;;;;4.39;71.17;97981.89;1740673;82;21154;-64
2021/03/22 08:06:19;;;;;;;24.37;15.72;;;;;;;4.40;70.64;97977.25;1777246;79;21170;-65
2021/03/22 08:09:30;;;;;;;23.60;16.30;;;;;;;4.12;71.09;97981.80;1728598;82;21114;-64
2021/03/22 08:12:05;;;;;;;20.45;14.30;;;;;;;4.05;71.59;97980.37;1682307;82;21316;-62
2021/03/22 08:14:36;;;;;;;23.00;15.72;;;;;;;3.96;71.84;97986.55;1708799;84;21257;-62
2021/03/22 08:17:30;;;;;;;25.25;15.90;;;;;;;3.95;72.75;97978.45;1713297;82;21574;-64
2021/03/22 08:20:11;;;;;;;25.75;15.60;;;;;;;4.06;72.59;97984.20;1685349;84;21180;-62
2021/03/22 08:22:50;;;;;;;24.37;16.20;;;;;;;4.12;72.41;97988.58;1718387;82;21161;-61
2021/03/22 08:25:37;;;;;;;24.87;15.95;;;;;;;3.98;72.23;97980.64;1728753;82;21115;-67
2021/03/22 08:28:19;;;;;;;27.80;17.40;;;;;;;3.79;73.11;97984.89;1723700;82;21609;-63
2021/03/22 08:31:10;;;;;;;29.05;17.15;;;;;;;3.68;73.67;97989.77;1735618;81;21649;-63
2021/03/22 08:33:47;;;;;;;24.90;17.10;;;;;;;3.84;73.87;97997.34;1722930;82;21187;-64
2021/03/22 08:36:36;;;;;;;28.65;17.55;;;;;;;4.08;73.92;97992.77;1727090;82;21146;-66
2021/03/22 08:39:27;;;;;;;24.70;15.83;;;;;;;4.35;73.28;97991.59;1735028;82;21134;-63
2021/03/22 08:42:25;;;;;;;25.70;17.70;;;;;;;4.52;71.73;97991.51;1738155;82;21316;-65
2021/03/22 08:44:58;;;;;;;26.52;16.77;;;;;;;4.32;71.42;97992.81;1736977;82;21328;-67
2021/03/22 08:47:43;;;;;;;29.67;18.25;;;;;;;4.01;72.43;97993.47;1743681;82;21332;-65
2021/03/22 08:50:19;;;;;;;25.65;18.00;;;;;;;3.93;72.91;97991.17;1751598;82;21277;-66
2021/03/22 08:53:14;;;;;;;27.73;19.10;;;;;;;3.90;73.61;97992.39;1733404;82;21154;-67
2021/03/22 08:55:51;;;;;;;25.72;17.35;;;;;;;4.12;73.45;97986.91;1738101;82;21217;-67
2021/03/22 08:58:37;;;;;;;23.87;16.77;;;;;;;4.34;73.58;97993.29;1727672;82;21352;-63
2021/03/22 09:01:27;;;;;;;23.25;16.52;;;;;;;4.61;72.77;97997.23;1727919;82;21288;-64
2021/03/22 09:04:22;;;;;;;26.47;17.50;;;;;;;4.71;71.49;98000.40;1729585;82;21137;-66
2021/03/22 09:07:14;;;;;;;23.92;15.95;;;;;;;4.71;71.30;98000.40;1727281;83;21125;-61
2021/03/22 09:09:48;;;;;;;25.08;16.90;;;;;;;4.87;71.06;97997.70;1721019;82;21349;-61
2021/03/22 09:12:45;;;;;;;24.63;17.62;;;;;;;5.15;70.40;98004.15;1710675;82;21131;-62
2021/03/22 09:15:25;;;;;;;24.63;16.35;;;;;;;5.47;69.37;98001.27;1711893;83;21324;-63
2021/03/22 09:18:08;;;;;;;23.85;15.48;;;;;;;5.77;68.37;97998.28;1724213;82;21373;-64
2021/03/22 09:20:54;;;;;;;24.25;16.62;;;;;;;5.87;65.82;97999.27;1722688;83;21163;-64
2021/03/22 09:23:39;;;;;;;26.82;18.17;;;;;;;5.60;66.41;97995.92;1725505;82;21181;-64
2021/03/22 09:26:09;;;;;;;25.55;16.37;;;;;;;5.46;66.63;97999.53;1729987;82;21209;-65
2021/03/22 09:28:49;;;;;;;24.55;16.93;;;;;;;5.18;66.70;97995.66;1737450;82;21142;-63
2021/03/22 09:31:25;;;;;;;26.77;17.00;;;;;;;4.98;67.32;98001.29;1727299;82;21671;-63
2021/03/22 09:34:16;;;;;;;25.30;18.00;;;;;;;4.94;67.76;97996.98;1730688;82;21204;-66
2021/03/22 09:36:47;;;;;;;22.02;16.12;;;;;;;5.09;67.48;97989.99;1723856;82;21209;-65
2021/03/22 09:39:23;;;;;;;25.27;16.85;;;;;;;5.18;67.42;97993.11;1718548;82;21226;-60
2021/03/22 09:42:15;;;;;;;27.95;16.32;;;;;;;5.24;67.17;97998.34;1732691;82;21375;-66
2021/03/22 09:44:59;;;;;;;;;;;;;;;5.15;67.83;98002.02;1730740;82;21186;-63
2021/03/22 09:47:34;;;;;;;25.17;17.37;;;;;;;5.27;67.54;98000.95;1721674;82;20301;-66
2021/03/22 09:50:23;;;;;;;27.60;17.67;;;;;;;5.14;67.24;97997.33;1725580;82;21292;-60
2021/03/22 09:52:57;;;;;;;24.05;17.20;;;;;;;4.91;67.68;97996.93;1731210;81;21249;-65
2021/03/22 09:55:33;;;;;;;24.77;17.62;;;;;;;4.65;68.35;98000.69;1736956;83;21311;-63
2021/03/22 09:58:34;;;;;;;24.43;16.97;;;;;;;4.55;69.17;98013.31;1737102;83;21576;-64
2021/03/22 10:01:26;;;;;;;23.90;17.00;;;;;;;4.50;69.27;98007.25;1736864;82;21157;-64
2021/03/22 10:04:31;;;;;;;27.10;17.70;;;;;;;4.19;69.94;98005.75;1736785;82;21357;-63
2021/03/22 10:07:26;;;;;;;27.55;17.67;;;;;;;4.01;70.79;98004.95;1727970;82;21381;-63
2021/03/22 10:10:02;;;;;;;25.20;16.97;;;;;;;3.97;70.82;98010.84;1737560;82;21233;-65
2021/03/22 10:12:37;;;;;;;24.95;17.45;;;;;;;3.86;71.32;98013.55;1757716;82;21130;-61
2021/03/22 10:15:16;;;;;;;26.25;17.37;;;;;;;3.80;71.77;98018.53;1739327;82;21135;-61
2021/03/22 10:18:04;;;;;;;26.40;16.67;;;;;;;3.87;72.34;98021.25;1721492;83;21340;-62
2021/03/22 10:20:40;;;;;;;22.90;16.48;;;;;;;4.10;72.35;98015.37;1724290;82;21126;-61
2021/03/22 10:23:30;;;;;;;25.05;17.12;;;;;;;4.19;71.71;98018.94;1725631;82;21167;-61
2021/03/22 10:26:11;;;;;;;24.92;17.85;;;;;;;4.12;71.94;98017.94;1738387;82;21301;-63
2021/03/22 10:28:41;;;;;;;27.02;18.27;;;;;;;4.07;72.40;98025.52;1738252;82;21365;-62
2021/03/22 10:31:25;;;;;;;25.95;17.77;;;;;;;3.96;73.24;98021.00;1738340;82;21245;-65
2021/03/22 10:34:00;;;;;;;26.42;18.70;;;;;;;4.00;73.28;98028.77;1738381;82;21308;-64
2021/03/22 10:36:38;;;;;;;26.87;19.17;;;;;;;3.89;72.49;98026.37;1710360;82;21176;-62
2021/03/22 10:39:11;;;;;;;30.70;20.27;;;;;;;3.69;72.50;98032.33;1709188;84;21200;-62
2021/03/22 10:41:41;;;;;;;28.83;20.17;;;;;;;3.42;73.09;98032.53;1708086;84;21303;-61
2021/03/22 10:44:25;;;;;;;28.57;19.20;;;;;;;3.18;74.06;98028.56;1709052;83;21334;-61
2021/03/22 10:47:16;;;;;;;32.00;20.48;;;;;;;2.95;75.18;98023.27;1870530;76;22152;-64
2021/03/22 10:49:44;;;;;;;29.57;19.67;;;;;;;2.73;76.13;98021.45;1809972;78;21578;-65
2021/03/22 10:52:26;;;;;;;30.65;20.72;;;;;;;2.67;76.68;98017.87;1810911;77;21553;-62
2021/03/22 10:54:55;;;;;;;32.38;21.05;;;;;;;2.55;77.23;98012.05;1811659;78;21155;-62
2021/03/22 10:57:28;;;;;;;30.05;21.35;;;;;;;2.49;77.44;98010.59;1809510;78;21131;-63
2021/03/22 11:00:02;;;;;;;30.97;21.97;;;;;;;2.42;77.81;98010.86;1810015;78;21176;-61
2021/03/22 11:02:38;;;;;;;;;;;;;;;2.41;78.06;98010.80;1812676;78;21100;-62
2021/03/22 11:05:11;;;;;;;36.83;23.20;;;;;;;2.37;78.04;98009.45;1799504;78;20133;-65
2021/03/22 11:07:40;;;;;;;30.30;21.60;;;;;;;2.43;78.20;98012.56;1795148;80;21154;-61
2021/03/22 11:10:19;;;;;;;31.48;20.43;;;;;;;2.55;77.33;98010.78;1795163;80;21731;-62
2021/03/22 11:12:51;;;;;;;31.02;21.75;;;;;;;2.60;77.13;98008.80;1795154;78;21148;-63
2021/03/22 11:15:39;;;;;;;34.65;20.68;;;;;;;2.63;76.66;98004.20;1795215;80;21148;-61
2021/03/22 11:18:15;;;;;;;33.73;21.85;;;;;;;2.69;76.08;98008.59;1799852;78;21363;-61
2021/03/22 11:20:47;;;;;;;28.65;20.35;;;;;;;2.71;75.88;98012.90;1792377;78;21249;-63
2021/03/22 11:23:44;;;;;;;32.15;22.42;;;;;;;2.71;75.80;98014.17;1812616;78;21625;-64
2021/03/22 11:26:24;;;;;;;32.50;23.22;;;;;;;2.80;75.99;98011.02;1795140;80;21122;-62
2021/03/22 11:29:16;;;;;;;32.98;22.35;;;;;;;3.00;75.31;98007.69;1806797;78;21153;-62
2021/03/22 11:31:48;;;;;;;32.30;21.35;;;;;;;3.19;74.88;98006.06;1813066;77;21244;-64
2021/03/22 11:34:33;;;;;;;30.88;20.00;;;;;;;3.35;74.74;98006.01;1806064;78;21558;-65
2021/03/22 11:37:28;;;;;;;34.33;21.73;;;;;;;3.54;73.84;98006.05;1795319;80;21173;-63
2021/03/22 11:40:08;;;;;;;35.43;22.05;;;;;;;3.59;72.83;98007.02;1804060;78;21161;-59
2021/03/22 11:42:59;;;;;;;30.88;20.75;;;;;;;3.61;72.58;98012.13;1809983;78;21108;-65
2021/03/22 11:45:33;;;;;;;30.97;20.20;;;;;;;3.58;71.98;98015.48;1770745;79;21179;-65
2021/03/22 11:48:02;;;;;;;28.62;20.65;;;;;;;3.46;72.10;98013.91;1788935;79;21147;-62
2021/03/22 11:50:39;;;;;;;28.07;19.62;;;;;;;3.49;72.09;98017.83;1786068;77;21425;-64
2021/03/22 11:53:22;;;;;;;29.42;20.60;;;;;;;3.49;71.51;98021.66;1780561;80;21144;-63
2021/03/22 11:55:58;;;;;;;31.82;21.97;;;;;;;3.53;71.68;98022.58;1781627;79;21321;-61
2021/03/22 11:58:40;;;;;;;33.55;21.12;;;;;;;3.64;71.32;98020.73;1779908;79;21326;-61
2021/03/22 12:01:27;;;;;;;29.80;21.17;;;;;;;3.78;70.22;98015.08;1784106;79;21271;-64
2021/03/22 12:04:11;;;;;;;27.52;19.52;;;;;;;3.83;69.79;98012.22;1812143;78;21123;-63
2021/03/22 12:07:07;;;;;;;27.62;18.45;;;;;;;3.90;69.32;98019.19;1812778;78;21084;-61
2021/03/22 12:09:42;;;;;;;26.12;16.85;;;;;;;3.90;68.58;98017.91;1794804;79;21152;-64
2021/03/22 12:12:14;;;;;;;25.85;17.37;;;;;;;3.95;67.96;98019.29;1780946;80;21140;-67
2021/03/22 12:14:42;;;;;;;28.57;18.92;;;;;;;4.00;68.42;98027.48;1785586;79;21298;-67
2021/03/22 12:17:27;;;;;;;26.23;17.17;;;;;;;4.07;67.82;98027.19;1781038;80;21294;-67
2021/03/22 12:19:56;;;;;;;23.80;16.82;;;;;;;4.06;67.80;98017.81;1793456;79;21135;-65